Stevensville, MT

8:23 PM MDT on July 31, 2015 (GMT -0600)
MSU - Western Ag Research Center | | Change Station
CLOSE
Current Station
Personal Weather Station
Location: Corvallis, MT
Elevation: 3596 ft
Nearby Weather Stations

Elev 3596 ft 46.33 °N, 114.08 °W | Updated 3 seconds ago

Clear
Clear
89.5 °F
Feels Like 86 °F
N
2.0
Wind Variable Wind from East
Gusts 4.0 mph

Today
High -- | Low -- °F
--% Chance of Precip.
Yesterday
High -- | Low -- °F
Precip. -- in
6:15 AM 9:08 PM
Waxing Gibbous, 99% visible
Pressure 29.98 in
Visibility 10.0 miles
Clouds Clear
Heat Index 86 °F
Dew Point 43 °F
Humidity 20%
Rainfall 0.00 in
Snow Depth Not available.
UV 1 out of 12
Pollen 5.60 out of 12
Air Quality Not available.
Flu Activity Not available.
METAR KMSO 010153Z 26009KT 10SM CLR 32/M03 A3005 RMK AO2 SLP151 T03221028

More Conditions Fewer Conditions

Pressure 29.98 in
Visibility 10.0 miles
Clouds Clear
Heat Index 86 °F
Dew Point 43 °F
Humidity 20%
Rainfall 0.00 in
Snow Depth Not available.
UV 1 out of 12
Pollen 5.60 out of 12
Air Quality Not available.
Flu Activity Not available.
METAR KMSO 010153Z 26009KT 10SM CLR 32/M03 A3005 RMK AO2 SLP151 T03221028

More Conditions Fewer Conditions

10-Day Weather Forecast

×

Almanac

Astronomy

Jul. 31, 2015 Rise Set
Actual Time
Civil Twilight
Nautical Twilight
Astronomical Twilight
Moon
Length of Visible Light
Length of Day
Tomorrow will be .
, % of the Moon is Illuminated

Today's Extremes

State Highs State Lows

Community

WunderPhotos

Upload Photos

1,842,827 photos uploaded!

WunderBlogs® & News

Nearby

Air Quality

  Air Quality AQ Index Pollutant
Not available.

Snow Depth

Station Depth Elevation

Earthquake Activity

City Distance Mag. Time & Date
Minimum magnitude displayed is 2.5.

Coastal Water Temperatures

Place Temperature

Stations

Nearby Weather Stations

Station Location Temp. Windchill Dew Point Humidity Wind Precip. Elev Updated Type